sensor_id;sensor_type;location;lat;lon;timestamp;pressure;altitude;pressure_sealevel;temperature;humidity
55914;BME280;58179;48.776;9.124;2023-03-03T00:00:52;97529.78;;;1.20;100.00
55914;BME280;58179;48.776;9.124;2023-03-03T00:03:24;97537.94;;;1.17;100.00
55914;BME280;58179;48.776;9.124;2023-03-03T00:05:52;97538.13;;;1.15;100.00
55914;BME280;58179;48.776;9.124;2023-03-03T00:08:19;97534.72;;;1.15;100.00
55914;BME280;58179;48.776;9.124;2023-03-03T00:10:46;97537.31;;;1.15;100.00
55914;BME280;58179;48.776;9.124;2023-03-03T00:13:15;97538.09;;;1.09;100.00
55914;BME280;58179;48.776;9.124;2023-03-03T00:15:41;97536.84;;;1.05;100.00
55914;BME280;58179;48.776;9.124;2023-03-03T00:18:19;97533.97;;;1.00;100.00
55914;BME280;58179;48.776;9.124;2023-03-03T00:20:51;97534.16;;;0.98;100.00
55914;BME280;58179;48.776;9.124;2023-03-03T00:23:25;97529.97;;;0.97;100.00
55914;BME280;58179;48.776;9.124;2023-03-03T00:25:54;97531.94;;;0.95;100.00
55914;BME280;58179;48.776;9.124;2023-03-03T00:28:24;97533.75;;;0.95;100.00
55914;BME280;58179;48.776;9.124;2023-03-03T00:30:53;97534.50;;;0.89;100.00
55914;BME280;58179;48.776;9.124;2023-03-03T00:33:27;97533.13;;;0.93;100.00
55914;BME280;58179;48.776;9.124;2023-03-03T00:35:56;97530.09;;;0.89;100.00
55914;BME280;58179;48.776;9.124;2023-03-03T00:38:22;97524.19;;;0.81;100.00
55914;BME280;58179;48.776;9.124;2023-03-03T00:40:48;97525.38;;;0.78;100.00
55914;BME280;58179;48.776;9.124;2023-03-03T00:43:19;97526.28;;;0.70;100.00
55914;BME280;58179;48.776;9.124;2023-03-03T00:45:47;97521.66;;;0.66;100.00
55914;BME280;58179;48.776;9.124;2023-03-03T00:48:25;97522.25;;;0.68;100.00
55914;BME280;58179;48.776;9.124;2023-03-03T00:50:52;97519.16;;;0.58;100.00
55914;BME280;58179;48.776;9.124;2023-03-03T00:53:22;97521.94;;;0.56;100.00
55914;BME280;58179;48.776;9.124;2023-03-03T00:55:50;97520.59;;;0.46;100.00
55914;BME280;58179;48.776;9.124;2023-03-03T00:58:17;97521.97;;;0.42;100.00
55914;BME280;58179;48.776;9.124;2023-03-03T01:00:43;97522.97;;;0.41;100.00
55914;BME280;58179;48.776;9.124;2023-03-03T01:03:13;97518.38;;;0.43;100.00
55914;BME280;58179;48.776;9.124;2023-03-03T01:05:39;97517.22;;;0.30;100.00
55914;BME280;58179;48.776;9.124;2023-03-03T01:08:06;97513.03;;;0.29;100.00
55914;BME280;58179;48.776;9.124;2023-03-03T01:10:37;97513.41;;;0.26;100.00
55914;BME280;58179;48.776;9.124;2023-03-03T01:13:04;97512.41;;;0.27;100.00
55914;BME280;58179;48.776;9.124;2023-03-03T01:15:30;97506.16;;;0.22;100.00
55914;BME280;58179;48.776;9.124;2023-03-03T01:17:57;97510.72;;;0.20;100.00
55914;BME280;58179;48.776;9.124;2023-03-03T01:20:22;97518.06;;;0.16;100.00
55914;BME280;58179;48.776;9.124;2023-03-03T01:22:48;97515.47;;;0.16;100.00
55914;BME280;58179;48.776;9.124;2023-03-03T01:25:14;97515.84;;;0.13;100.00
55914;BME280;58179;48.776;9.124;2023-03-03T01:27:42;97507.88;;;0.15;100.00
55914;BME280;58179;48.776;9.124;2023-03-03T01:30:09;97513.78;;;0.09;100.00
55914;BME280;58179;48.776;9.124;2023-03-03T01:32:35;97513.16;;;0.07;100.00
55914;BME280;58179;48.776;9.124;2023-03-03T01:35:01;97514.97;;;0.06;100.00
55914;BME280;58179;48.776;9.124;2023-03-03T01:37:27;97519.53;;;0.04;100.00
55914;BME280;58179;48.776;9.124;2023-03-03T01:39:54;97524.56;;;0.06;100.00
55914;BME280;58179;48.776;9.124;2023-03-03T01:42:20;97524.56;;;0.06;100.00
55914;BME280;58179;48.776;9.124;2023-03-03T01:44:48;97519.97;;;0.08;100.00
55914;BME280;58179;48.776;9.124;2023-03-03T01:47:15;97519.06;;;0.00;100.00
55914;BME280;58179;48.776;9.124;2023-03-03T01:49:47;97515.50;;;0.02;100.00
55914;BME280;58179;48.776;9.124;2023-03-03T01:52:21;97512.06;;;0.01;100.00
55914;BME280;58179;48.776;9.124;2023-03-03T01:54:52;97508.41;;;-0.05;100.00
55914;BME280;58179;48.776;9.124;2023-03-03T01:57:25;97511.00;;;-0.05;100.00
55914;BME280;58179;48.776;9.124;2023-03-03T01:59:56;97515.41;;;-0.05;100.00
55914;BME280;58179;48.776;9.124;2023-03-03T02:02:25;97504.66;;;-0.02;100.00
55914;BME280;58179;48.776;9.124;2023-03-03T02:04:51;97503.03;;;-0.03;100.00
55914;BME280;58179;48.776;9.124;2023-03-03T02:07:19;97505.72;;;0.04;100.00
55914;BME280;58179;48.776;9.124;2023-03-03T02:09:54;97499.06;;;0.01;100.00
55914;BME280;58179;48.776;9.124;2023-03-03T02:12:27;97491.25;;;0.01;100.00
55914;BME280;58179;48.776;9.124;2023-03-03T02:14:57;97491.91;;;0.03;100.00
55914;BME280;58179;48.776;9.124;2023-03-03T02:17:23;97490.09;;;0.04;100.00
55914;BME280;58179;48.776;9.124;2023-03-03T02:19:59;97493.69;;;0.03;100.00
55914;BME280;58179;48.776;9.124;2023-03-03T02:22:37;97486.88;;;0.02;100.00
55914;BME280;58179;48.776;9.124;2023-03-03T02:25:07;97488.06;;;-0.01;100.00
55914;BME280;58179;48.776;9.124;2023-03-03T02:27:37;97485.00;;;-0.05;100.00
55914;BME280;58179;48.776;9.124;2023-03-03T02:30:16;97485.97;;;-0.06;100.00
55914;BME280;58179;48.776;9.124;2023-03-03T02:32:42;97487.16;;;-0.08;100.00
55914;BME280;58179;48.776;9.124;2023-03-03T02:35:30;97497.56;;;-0.08;100.00
55914;BME280;58179;48.776;9.124;2023-03-03T02:38:04;97487.53;;;-0.11;100.00
55914;BME280;58179;48.776;9.124;2023-03-03T02:40:36;97489.06;;;-0.17;100.00
55914;BME280;58179;48.776;9.124;2023-03-03T02:43:05;97486.44;;;-0.17;100.00
55914;BME280;58179;48.776;9.124;2023-03-03T02:45:32;97497.84;;;-0.18;100.00
55914;BME280;58179;48.776;9.124;2023-03-03T02:47:57;97498.47;;;-0.16;100.00
55914;BME280;58179;48.776;9.124;2023-03-03T02:50:23;97494.50;;;-0.12;100.00
55914;BME280;58179;48.776;9.124;2023-03-03T02:52:49;97497.38;;;-0.07;100.00
55914;BME280;58179;48.776;9.124;2023-03-03T02:55:15;97500.09;;;0.00;100.00
55914;BME280;58179;48.776;9.124;2023-03-03T02:57:41;97504.56;;;0.06;100.00
55914;BME280;58179;48.776;9.124;2023-03-03T03:00:10;97502.19;;;0.11;100.00
55914;BME280;58179;48.776;9.124;2023-03-03T03:02:36;97503.66;;;0.14;100.00
55914;BME280;58179;48.776;9.124;2023-03-03T03:05:02;97506.97;;;0.22;100.00
55914;BME280;58179;48.776;9.124;2023-03-03T03:07:28;97502.63;;;0.29;100.00
55914;BME280;58179;48.776;9.124;2023-03-03T03:09:54;97509.69;;;0.35;100.00
55914;BME280;58179;48.776;9.124;2023-03-03T03:12:20;97510.56;;;0.43;100.00
55914;BME280;58179;48.776;9.124;2023-03-03T03:14:46;97509.84;;;0.49;100.00
55914;BME280;58179;48.776;9.124;2023-03-03T03:17:14;97501.66;;;0.52;100.00
55914;BME280;58179;48.776;9.124;2023-03-03T03:19:40;97504.34;;;0.58;100.00
55914;BME280;58179;48.776;9.124;2023-03-03T03:22:06;97504.22;;;0.66;100.00
55914;BME280;58179;48.776;9.124;2023-03-03T03:24:31;97498.09;;;0.74;100.00
55914;BME280;58179;48.776;9.124;2023-03-03T03:26:57;97509.19;;;0.83;100.00
55914;BME280;58179;48.776;9.124;2023-03-03T03:29:23;97501.78;;;0.86;100.00
55914;BME280;58179;48.776;9.124;2023-03-03T03:31:49;97507.25;;;0.91;100.00
55914;BME280;58179;48.776;9.124;2023-03-03T03:34:16;97508.03;;;0.92;100.00
55914;BME280;58179;48.776;9.124;2023-03-03T03:36:43;97500.28;;;0.98;100.00
55914;BME280;58179;48.776;9.124;2023-03-03T03:39:11;97505.94;;;1.02;100.00
55914;BME280;58179;48.776;9.124;2023-03-03T03:41:37;97492.34;;;1.06;100.00
55914;BME280;58179;48.776;9.124;2023-03-03T03:44:03;97496.19;;;1.10;100.00
55914;BME280;58179;48.776;9.124;2023-03-03T03:46:29;97501.47;;;1.17;100.00
55914;BME280;58179;48.776;9.124;2023-03-03T03:48:55;97507.53;;;1.24;100.00
55914;BME280;58179;48.776;9.124;2023-03-03T03:51:22;97506.13;;;1.28;100.00
55914;BME280;58179;48.776;9.124;2023-03-03T03:53:48;97504.97;;;1.31;100.00
55914;BME280;58179;48.776;9.124;2023-03-03T03:56:15;97511.63;;;1.33;100.00
55914;BME280;58179;48.776;9.124;2023-03-03T03:58:41;97500.78;;;1.36;100.00
55914;BME280;58179;48.776;9.124;2023-03-03T04:01:07;97506.00;;;1.36;100.00
55914;BME280;58179;48.776;9.124;2023-03-03T04:03:33;97498.19;;;1.36;100.00
55914;BME280;58179;48.776;9.124;2023-03-03T04:05:59;97500.78;;;1.36;100.00
55914;BME280;58179;48.776;9.124;2023-03-03T04:08:26;97493.78;;;1.37;100.00
55914;BME280;58179;48.776;9.124;2023-03-03T04:10:52;97494.41;;;1.39;100.00
55914;BME280;58179;48.776;9.124;2023-03-03T04:13:18;97506.84;;;1.43;100.00
55914;BME280;58179;48.776;9.124;2023-03-03T04:15:44;97504.06;;;1.45;100.00
55914;BME280;58179;48.776;9.124;2023-03-03T04:18:10;97502.69;;;1.49;100.00
55914;BME280;58179;48.776;9.124;2023-03-03T04:20:36;97502.47;;;1.50;100.00
55914;BME280;58179;48.776;9.124;2023-03-03T04:23:04;97505.72;;;1.52;100.00
55914;BME280;58179;48.776;9.124;2023-03-03T04:25:31;97511.56;;;1.54;100.00
55914;BME280;58179;48.776;9.124;2023-03-03T04:27:57;97506.97;;;1.57;100.00
55914;BME280;58179;48.776;9.124;2023-03-03T04:30:23;97514.22;;;1.61;100.00
55914;BME280;58179;48.776;9.124;2023-03-03T04:32:49;97515.25;;;1.67;100.00
55914;BME280;58179;48.776;9.124;2023-03-03T04:35:15;97518.84;;;1.66;100.00
55914;BME280;58179;48.776;9.124;2023-03-03T04:37:41;97519.47;;;1.68;100.00
55914;BME280;58179;48.776;9.124;2023-03-03T04:40:09;97518.47;;;1.69;100.00
55914;BME280;58179;48.776;9.124;2023-03-03T04:42:36;97514.69;;;1.71;100.00
55914;BME280;58179;48.776;9.124;2023-03-03T04:45:03;97516.47;;;1.71;100.00
55914;BME280;58179;48.776;9.124;2023-03-03T04:47:30;97519.91;;;1.71;100.00
55914;BME280;58179;48.776;9.124;2023-03-03T04:49:57;97525.94;;;1.72;100.00
55914;BME280;58179;48.776;9.124;2023-03-03T04:52:22;97525.72;;;1.73;100.00
55914;BME280;58179;48.776;9.124;2023-03-03T04:54:48;97525.34;;;1.76;100.00
55914;BME280;58179;48.776;9.124;2023-03-03T04:57:14;97534.59;;;1.79;100.00
55914;BME280;58179;48.776;9.124;2023-03-03T04:59:41;97537.22;;;1.79;100.00
55914;BME280;58179;48.776;9.124;2023-03-03T05:02:07;97538.81;;;1.80;100.00
55914;BME280;58179;48.776;9.124;2023-03-03T05:04:33;97541.44;;;1.80;100.00
55914;BME280;58179;48.776;9.124;2023-03-03T05:06:59;97538.81;;;1.80;100.00
55914;BME280;58179;48.776;9.124;2023-03-03T05:09:25;97537.03;;;1.80;100.00
55914;BME280;58179;48.776;9.124;2023-03-03T05:11:51;97542.25;;;1.80;100.00
55914;BME280;58179;48.776;9.124;2023-03-03T05:14:17;97538.63;;;1.81;100.00
55914;BME280;58179;48.776;9.124;2023-03-03T05:16:44;97534.19;;;1.82;100.00
55914;BME280;58179;48.776;9.124;2023-03-03T05:19:10;97535.41;;;1.79;100.00
55914;BME280;58179;48.776;9.124;2023-03-03T05:21:36;97536.81;;;1.82;100.00
55914;BME280;58179;48.776;9.124;2023-03-03T05:24:07;97539.81;;;1.79;100.00
55914;BME280;58179;48.776;9.124;2023-03-03T05:26:33;97542.44;;;1.79;100.00
55914;BME280;58179;48.776;9.124;2023-03-03T05:28:59;97539.81;;;1.79;100.00
55914;BME280;58179;48.776;9.124;2023-03-03T05:31:24;97532.19;;;1.77;100.00
55914;BME280;58179;48.776;9.124;2023-03-03T05:33:53;97543.41;;;1.78;100.00
55914;BME280;58179;48.776;9.124;2023-03-03T05:36:19;97545.00;;;1.72;100.00
55914;BME280;58179;48.776;9.124;2023-03-03T05:38:45;97533.53;;;1.73;100.00
55914;BME280;58179;48.776;9.124;2023-03-03T05:41:11;97543.41;;;1.78;100.00
55914;BME280;58179;48.776;9.124;2023-03-03T05:43:37;97552.06;;;1.78;100.00
55914;BME280;58179;48.776;9.124;2023-03-03T05:46:10;97546.66;;;1.80;100.00
55914;BME280;58179;48.776;9.124;2023-03-03T05:48:41;97562.50;;;1.78;100.00
55914;BME280;58179;48.776;9.124;2023-03-03T05:51:09;97553.88;;;1.78;100.00
55914;BME280;58179;48.776;9.124;2023-03-03T05:53:35;97564.72;;;1.81;100.00
55914;BME280;58179;48.776;9.124;2023-03-03T05:56:01;97565.50;;;1.82;100.00
55914;BME280;58179;48.776;9.124;2023-03-03T05:58:28;97565.72;;;1.80;100.00
55914;BME280;58179;48.776;9.124;2023-03-03T06:00:55;97561.91;;;1.83;100.00
55914;BME280;58179;48.776;9.124;2023-03-03T06:03:21;97575.78;;;1.83;100.00
55914;BME280;58179;48.776;9.124;2023-03-03T06:05:47;97573.34;;;1.82;100.00
55914;BME280;58179;48.776;9.124;2023-03-03T06:08:14;97576.94;;;1.81;100.00
55914;BME280;58179;48.776;9.124;2023-03-03T06:10:40;97571.72;;;1.81;100.00
55914;BME280;58179;48.776;9.124;2023-03-03T06:13:06;97561.91;;;1.83;100.00
55914;BME280;58179;48.776;9.124;2023-03-03T06:15:32;97573.34;;;1.82;100.00
55914;BME280;58179;48.776;9.124;2023-03-03T06:17:58;97577.75;;;1.81;100.00
55914;BME280;58179;48.776;9.124;2023-03-03T06:20:24;97581.97;;;1.82;100.00
55914;BME280;58179;48.776;9.124;2023-03-03T06:22:49;97583.59;;;1.83;100.00
55914;BME280;58179;48.776;9.124;2023-03-03T06:25:17;97592.88;;;1.86;100.00
55914;BME280;58179;48.776;9.124;2023-03-03T06:27:43;97585.03;;;1.86;100.00
55914;BME280;58179;48.776;9.124;2023-03-03T06:30:12;97588.63;;;1.85;100.00
55914;BME280;58179;48.776;9.124;2023-03-03T06:32:38;97592.25;;;1.84;100.00
55914;BME280;58179;48.776;9.124;2023-03-03T06:35:05;97588.63;;;1.85;100.00
55914;BME280;58179;48.776;9.124;2023-03-03T06:37:31;97601.69;;;1.85;100.00
55914;BME280;58179;48.776;9.124;2023-03-03T06:39:57;97602.50;;;1.85;100.00
55914;BME280;58179;48.776;9.124;2023-03-03T06:42:24;97606.31;;;1.89;100.00
55914;BME280;58179;48.776;9.124;2023-03-03T06:44:50;97606.94;;;1.91;100.00
55914;BME280;58179;48.776;9.124;2023-03-03T06:47:16;97604.34;;;1.91;100.00
55914;BME280;58179;48.776;9.124;2023-03-03T06:49:42;97604.78;;;1.95;100.00
55914;BME280;58179;48.776;9.124;2023-03-03T06:52:12;97605.78;;;1.94;100.00
55914;BME280;58179;48.776;9.124;2023-03-03T06:54:38;97611.81;;;1.94;100.00
55914;BME280;58179;48.776;9.124;2023-03-03T06:57:16;97610.00;;;1.95;100.00
55914;BME280;58179;48.776;9.124;2023-03-03T06:59:45;97617.44;;;1.98;100.00
55914;BME280;58179;48.776;9.124;2023-03-03T07:02:16;97613.47;;;2.02;100.00
55914;BME280;58179;48.776;9.124;2023-03-03T07:04:42;97619.91;;;2.06;100.00
55914;BME280;58179;48.776;9.124;2023-03-03T07:07:15;97620.88;;;2.05;100.00
55914;BME280;58179;48.776;9.124;2023-03-03T07:09:43;97624.13;;;2.07;100.00
55914;BME280;58179;48.776;9.124;2023-03-03T07:12:14;97624.53;;;2.11;100.00
55914;BME280;58179;48.776;9.124;2023-03-03T07:14:44;97623.97;;;2.15;100.00
55914;BME280;58179;48.776;9.124;2023-03-03T07:17:16;97636.63;;;2.18;100.00
55914;BME280;58179;48.776;9.124;2023-03-03T07:19:43;97636.44;;;2.20;100.00
55914;BME280;58179;48.776;9.124;2023-03-03T07:22:15;97635.25;;;2.22;100.00
55914;BME280;58179;48.776;9.124;2023-03-03T07:24:43;97640.91;;;2.26;100.00
55914;BME280;58179;48.776;9.124;2023-03-03T07:27:13;97642.50;;;2.27;100.00
55914;BME280;58179;48.776;9.124;2023-03-03T07:29:41;97633.50;;;2.29;100.00
55914;BME280;58179;48.776;9.124;2023-03-03T07:32:26;97640.16;;;2.32;100.00
55914;BME280;58179;48.776;9.124;2023-03-03T07:34:55;97630.91;;;2.36;100.00
55914;BME280;58179;48.776;9.124;2023-03-03T07:37:28;97633.56;;;2.43;100.00
55914;BME280;58179;48.776;9.124;2023-03-03T07:39:55;97633.00;;;2.47;100.00
55914;BME280;58179;48.776;9.124;2023-03-03T07:42:24;97633.22;;;2.52;100.00
55914;BME280;58179;48.776;9.124;2023-03-03T07:44:56;97643.69;;;2.59;100.00
55914;BME280;58179;48.776;9.124;2023-03-03T07:47:26;97647.16;;;2.66;100.00
55914;BME280;58179;48.776;9.124;2023-03-03T07:49:54;97639.50;;;2.71;100.00
55914;BME280;58179;48.776;9.124;2023-03-03T07:52:28;97634.13;;;2.79;100.00
55914;BME280;58179;48.776;9.124;2023-03-03T07:54:57;97644.59;;;2.86;100.00
55914;BME280;58179;48.776;9.124;2023-03-03T07:57:26;97643.84;;;2.92;100.00
55914;BME280;58179;48.776;9.124;2023-03-03T07:59:57;97646.66;;;2.97;100.00
55914;BME280;58179;48.776;9.124;2023-03-03T08:02:38;97642.06;;;3.05;100.00
55914;BME280;58179;48.776;9.124;2023-03-03T08:05:30;97648.94;;;3.13;100.00
55914;BME280;58179;48.776;9.124;2023-03-03T08:08:26;97659.22;;;3.21;100.00
55914;BME280;58179;48.776;9.124;2023-03-03T08:10:56;97661.44;;;3.31;100.00
55914;BME280;58179;48.776;9.124;2023-03-03T08:13:25;97658.63;;;3.39;100.00
55914;BME280;58179;48.776;9.124;2023-03-03T08:15:57;97660.69;;;3.50;100.00
55914;BME280;58179;48.776;9.124;2023-03-03T08:18:29;97662.69;;;3.61;100.00
55914;BME280;58179;48.776;9.124;2023-03-03T08:21:00;97668.97;;;3.60;100.00
55914;BME280;58179;48.776;9.124;2023-03-03T08:23:27;97663.31;;;3.63;100.00
55914;BME280;58179;48.776;9.124;2023-03-03T08:25:53;97663.13;;;3.71;100.00
55914;BME280;58179;48.776;9.124;2023-03-03T08:28:20;97664.91;;;3.71;100.00
55914;BME280;58179;48.776;9.124;2023-03-03T08:30:47;97662.09;;;3.79;100.00
55914;BME280;58179;48.776;9.124;2023-03-03T08:33:14;97661.91;;;3.94;100.00
55914;BME280;58179;48.776;9.124;2023-03-03T08:35:42;97661.50;;;4.03;100.00
55914;BME280;58179;48.776;9.124;2023-03-03T08:38:09;97658.66;;;4.18;100.00
55914;BME280;58179;48.776;9.124;2023-03-03T08:40:35;97655.41;;;4.29;100.00
55914;BME280;58179;48.776;9.124;2023-03-03T08:43:01;97659.06;;;4.28;100.00
55914;BME280;58179;48.776;9.124;2023-03-03T08:45:27;97655.19;;;4.37;100.00
55914;BME280;58179;48.776;9.124;2023-03-03T08:47:54;97647.78;;;4.34;100.00
55914;BME280;58179;48.776;9.124;2023-03-03T08:50:20;97658.06;;;4.36;100.00
55914;BME280;58179;48.776;9.124;2023-03-03T08:52:48;97665.69;;;4.37;100.00
55914;BME280;58179;48.776;9.124;2023-03-03T08:55:14;97660.84;;;4.41;100.00
55914;BME280;58179;48.776;9.124;2023-03-03T08:57:40;97664.47;;;4.40;100.00
55914;BME280;58179;48.776;9.124;2023-03-03T09:00:09;97667.28;;;4.45;100.00
55914;BME280;58179;48.776;9.124;2023-03-03T09:02:36;97670.69;;;4.52;100.00
55914;BME280;58179;48.776;9.124;2023-03-03T09:05:02;97672.72;;;4.56;100.00
55914;BME280;58179;48.776;9.124;2023-03-03T09:07:28;97684.81;;;4.57;100.00
55914;BME280;58179;48.776;9.124;2023-03-03T09:09:56;97681.75;;;4.60;100.00
55914;BME280;58179;48.776;9.124;2023-03-03T09:12:29;97680.16;;;4.66;100.00
55914;BME280;58179;48.776;9.124;2023-03-03T09:14:59;97687.78;;;4.74;100.00
55914;BME280;58179;48.776;9.124;2023-03-03T09:17:31;97695.84;;;4.79;100.00
55914;BME280;58179;48.776;9.124;2023-03-03T09:20:03;97703.69;;;4.86;100.00
55914;BME280;58179;48.776;9.124;2023-03-03T09:22:36;97693.41;;;4.84;100.00
55914;BME280;58179;48.776;9.124;2023-03-03T09:25:17;97699.63;;;4.90;100.00
55914;BME280;58179;48.776;9.124;2023-03-03T09:27:45;97700.84;;;4.94;100.00
55914;BME280;58179;48.776;9.124;2023-03-03T09:30:31;97705.06;;;5.01;100.00
55914;BME280;58179;48.776;9.124;2023-03-03T09:32:59;97703.63;;;5.05;100.00
55914;BME280;58179;48.776;9.124;2023-03-03T09:35:35;97706.00;;;5.14;100.00
55914;BME280;58179;48.776;9.124;2023-03-03T09:38:19;97704.97;;;5.21;100.00
55914;BME280;58179;48.776;9.124;2023-03-03T09:43:58;97705.63;;;5.79;100.00
55914;BME280;58179;48.776;9.124;2023-03-03T09:46:36;97697.88;;;5.98;100.00
55914;BME280;58179;48.776;9.124;2023-03-03T09:49:15;97696.31;;;6.15;100.00
55914;BME280;58179;48.776;9.124;2023-03-03T09:52:13;97692.00;;;6.45;100.00
55914;BME280;58179;48.776;9.124;2023-03-03T09:55:02;97697.47;;;6.62;100.00
55914;BME280;58179;48.776;9.124;2023-03-03T09:57:46;97692.47;;;6.79;100.00
55914;BME280;58179;48.776;9.124;2023-03-03T10:00:30;97698.03;;;6.89;100.00
55914;BME280;58179;48.776;9.124;2023-03-03T10:03:20;97694.00;;;6.86;100.00
55914;BME280;58179;48.776;9.124;2023-03-03T10:05:54;97690.78;;;7.03;100.00
55914;BME280;58179;48.776;9.124;2023-03-03T10:08:38;97703.25;;;7.07;100.00
55914;BME280;58179;48.776;9.124;2023-03-03T10:11:18;97701.44;;;7.08;100.00
55914;BME280;58179;48.776;9.124;2023-03-03T10:14:19;97701.00;;;7.29;100.00
55914;BME280;58179;48.776;9.124;2023-03-03T10:17:18;97695.53;;;7.72;100.00
55914;BME280;58179;48.776;9.124;2023-03-03T10:19:59;97704.75;;;7.93;100.00
55914;BME280;58179;48.776;9.124;2023-03-03T10:22:36;97700.50;;;7.92;100.00
55914;BME280;58179;48.776;9.124;2023-03-03T10:25:19;97702.13;;;7.93;100.00
55914;BME280;58179;48.776;9.124;2023-03-03T10:28:18;97712.50;;;8.29;100.00
55914;BME280;58179;48.776;9.124;2023-03-03T10:30:53;97700.28;;;7.93;100.00
55914;BME280;58179;48.776;9.124;2023-03-03T10:33:25;97697.09;;;8.03;100.00
55914;BME280;58179;48.776;9.124;2023-03-03T10:36:26;97700.88;;;8.07;100.00
55914;BME280;58179;48.776;9.124;2023-03-03T10:39:08;97708.97;;;8.82;100.00
55914;BME280;58179;48.776;9.124;2023-03-03T10:42:02;97705.56;;;9.50;100.00
55914;BME280;58179;48.776;9.124;2023-03-03T10:44:49;97707.38;;;10.39;100.00
55914;BME280;58179;48.776;9.124;2023-03-03T10:50:23;97687.09;;;11.49;100.00
55914;BME280;58179;48.776;9.124;2023-03-03T10:53:01;97686.84;;;12.36;100.00
55914;BME280;58179;48.776;9.124;2023-03-03T10:55:35;97684.63;;;12.65;100.00
55914;BME280;58179;48.776;9.124;2023-03-03T10:58:34;97673.56;;;13.30;100.00
55914;BME280;58179;48.776;9.124;2023-03-03T11:01:12;97682.63;;;13.49;100.00
55914;BME280;58179;48.776;9.124;2023-03-03T11:06:45;97685.56;;;13.43;100.00
55914;BME280;58179;48.776;9.124;2023-03-03T11:09:36;97692.28;;;13.86;100.00
55914;BME280;58179;48.776;9.124;2023-03-03T11:12:22;97692.59;;;14.05;100.00
55914;BME280;58179;48.776;9.124;2023-03-03T11:15:13;97690.97;;;14.04;100.00
55914;BME280;58179;48.776;9.124;2023-03-03T11:18:01;97689.84;;;13.64;100.00
55914;BME280;58179;48.776;9.124;2023-03-03T11:20:37;97689.06;;;12.96;100.00
55914;BME280;58179;48.776;9.124;2023-03-03T11:23:26;97698.34;;;12.52;100.00
55914;BME280;58179;48.776;9.124;2023-03-03T11:26:07;97698.63;;;12.18;100.00
55914;BME280;58179;48.776;9.124;2023-03-03T11:28:55;97701.78;;;11.83;100.00
55914;BME280;58179;48.776;9.124;2023-03-03T11:31:32;97706.13;;;11.46;100.00
55914;BME280;58179;48.776;9.124;2023-03-03T11:34:13;97698.03;;;11.09;100.00
55914;BME280;58179;48.776;9.124;2023-03-03T11:36:50;97706.31;;;10.74;100.00
55914;BME280;58179;48.776;9.124;2023-03-03T11:39:22;97704.19;;;10.37;100.00
55914;BME280;58179;48.776;9.124;2023-03-03T11:42:03;97706.41;;;10.12;100.00
55914;BME280;58179;48.776;9.124;2023-03-03T11:44:36;97692.03;;;9.91;100.00
55914;BME280;58179;48.776;9.124;2023-03-03T11:47:12;97693.28;;;9.72;100.00
55914;BME280;58179;48.776;9.124;2023-03-03T11:49:47;97686.31;;;9.66;100.00
55914;BME280;58179;48.776;9.124;2023-03-03T11:52:27;97684.13;;;9.63;100.00
55914;BME280;58179;48.776;9.124;2023-03-03T11:55:01;97675.72;;;9.66;100.00
55914;BME280;58179;48.776;9.124;2023-03-03T11:57:34;97680.44;;;9.64;100.00
55914;BME280;58179;48.776;9.124;2023-03-03T12:00:18;97681.09;;;9.71;100.00
55914;BME280;58179;48.776;9.124;2023-03-03T12:03:09;97671.97;;;9.79;100.00
55914;BME280;58179;48.776;9.124;2023-03-03T12:05:46;97676.47;;;9.78;100.00
55914;BME280;58179;48.776;9.124;2023-03-03T12:08:30;97672.63;;;9.86;100.00
55914;BME280;58179;48.776;9.124;2023-03-03T12:11:06;97668.09;;;9.98;100.00
55914;BME280;58179;48.776;9.124;2023-03-03T12:13:50;97658.66;;;10.19;100.00
55914;BME280;58179;48.776;9.124;2023-03-03T12:16:30;97655.66;;;10.48;100.00
55914;BME280;58179;48.776;9.124;2023-03-03T12:19:19;97661.13;;;10.80;100.00
55914;BME280;58179;48.776;9.124;2023-03-03T12:22:12;97659.25;;;11.24;100.00
55914;BME280;58179;48.776;9.124;2023-03-03T12:25:23;97658.50;;;11.78;100.00
55914;BME280;58179;48.776;9.124;2023-03-03T12:27:57;97651.16;;;12.22;100.00
55914;BME280;58179;48.776;9.124;2023-03-03T12:31:05;97661.44;;;12.50;100.00
55914;BME280;58179;48.776;9.124;2023-03-03T12:33:51;97654.13;;;12.72;100.00
55914;BME280;58179;48.776;9.124;2023-03-03T12:36:41;97654.38;;;12.71;100.00
55914;BME280;58179;48.776;9.124;2023-03-03T12:39:18;97651.28;;;12.84;100.00
55914;BME280;58179;48.776;9.124;2023-03-03T12:41:52;97643.38;;;13.04;100.00
55914;BME280;58179;48.776;9.124;2023-03-03T12:44:27;97644.81;;;13.27;100.00
55914;BME280;58179;48.776;9.124;2023-03-03T12:47:03;97648.59;;;13.56;100.00
55914;BME280;58179;48.776;9.124;2023-03-03T12:49:38;97647.03;;;13.71;100.00
55914;BME280;58179;48.776;9.124;2023-03-03T12:52:24;97645.97;;;13.77;100.00
55914;BME280;58179;48.776;9.124;2023-03-03T12:55:04;97650.50;;;13.71;100.00
55914;BME280;58179;48.776;9.124;2023-03-03T12:57:42;97650.72;;;13.54;100.00
55914;BME280;58179;48.776;9.124;2023-03-03T13:00:28;97654.34;;;13.18;100.00
55914;BME280;58179;48.776;9.124;2023-03-03T13:03:04;97642.97;;;13.23;100.00
55914;BME280;58179;48.776;9.124;2023-03-03T13:05:45;97641.47;;;12.95;97.81
55914;BME280;58179;48.776;9.124;2023-03-03T13:08:28;97642.53;;;12.94;100.00
55914;BME280;58179;48.776;9.124;2023-03-03T13:11:09;97646.38;;;13.23;100.00
55914;BME280;58179;48.776;9.124;2023-03-03T13:13:46;97646.97;;;13.30;100.00
55914;BME280;58179;48.776;9.124;2023-03-03T13:16:20;97656.25;;;13.28;100.00
55914;BME280;58179;48.776;9.124;2023-03-03T13:18:54;97643.56;;;13.45;100.00
55914;BME280;58179;48.776;9.124;2023-03-03T13:21:28;97644.88;;;13.47;100.00
55914;BME280;58179;48.776;9.124;2023-03-03T13:24:06;97639.28;;;13.49;100.00
55914;BME280;58179;48.776;9.124;2023-03-03T13:26:42;97642.53;;;13.66;100.00
55914;BME280;58179;48.776;9.124;2023-03-03T13:29:18;97637.22;;;13.81;100.00
55914;BME280;58179;48.776;9.124;2023-03-03T13:31:48;97636.66;;;14.15;100.00